• Join FlightAware (Why Join?)
  • Login
  • US Flag 
Rudolph Flight #1: Arrived! 
08:59AM EST


 

Airport Tracker/Info


-or-


 

Live Flight TrackerFlight Track Log ✈ DAL1356 ✈ 04-Oct-2013 ✈ KDTW - KLAS

Flight Track Log - Related Links

Times and Time Zones

All times are in EDT time to prevent confusion due to time zone crossing. See the DAL1356 flight status page for this flight to view local times or setup timezone preferences in your user account.

Time Position Orientation Groundspeed Altitude Reporting Facility
EDT Latitude Longitude Course Direction KTS MPH feet Rate Location/Type
10:00PM 42.1972 -83.3742 275° West 179 206 1,400  Level Cleveland Center
10:01PM 42.1642 -83.4203 226° Southwest 208 239 3,100 1,860 Climbing Cleveland Center
10:02PM 42.1372 -83.4675 232° Southwest 226 260 4,500 2,100 Climbing Cleveland Center
10:02PM 42.1411 -83.4989 279° West 254 292 5,200 2,400 Climbing Cleveland Center
10:03PM 42.1913 -83.8128 292° West  Level Estimated
10:03PM 42.1653 -83.5453 305° West 260 299 7,000  Level Cleveland Center
10:04PM 42.2676 -83.9266 312° West  Level FlightAware Approximate
10:04PM 42.2058 -83.6447 299° West 274 315 10,000  Level Cleveland Center
10:05PM 42.2596 -84.0798 275° West  Level Estimated
10:05PM 42.2467 -83.7467 298° West 310 357 12,200  Level Cleveland Center
10:06PM 42.2900 -83.8544 299° West 323 372 13,600 1,860 Climbing Cleveland Center
10:07PM 42.3403 -83.9764 299° West 366 421 16,000 2,040 Climbing Cleveland Center
10:08PM 42.3892 -84.0992 298° West 372 428 17,800 1,800 Climbing Cleveland Center
10:09PM 42.4272 -84.2356 291° West 401 461 19,800 2,040 Climbing Cleveland Center
10:10PM 42.4325 -84.3817 273° West 394 453 22,000 2,100 Climbing Cleveland Center
10:10PM 42.4350 -84.4564 273° West 393 452 23,100 1,680 Climbing Chicago Center
10:11PM 42.4375 -84.6011 271° West 388 447 24,700 1,560 Climbing Chicago Center
10:12PM 42.4436 -84.7800 273° West 395 455 26,300 1,380 Climbing Chicago Center
10:13PM 42.4464 -84.9328 271° West 402 463 27,600 1,200 Climbing Chicago Center
10:14PM 42.4500 -85.0869 272° West 408 470 28,800 1,200 Climbing Chicago Center
10:15PM 42.4525 -85.2444 271° West 415 478 30,100 1,320 Climbing Chicago Center
10:16PM 42.4553 -85.3983 271° West 412 474 31,600 1,380 Climbing Chicago Center
10:18PM 42.4578 -85.5506 271° West 407 468 33,000 1,140 Climbing Chicago Center
10:19PM 42.4600 -85.7003 271° West 401 461 34,000 780 Climbing Chicago Center
10:20PM 42.4611 -85.8481 271° West 395 455 34,600 540 Climbing Chicago Center
10:21PM 42.4639 -86.0006 271° West 403 464 35,200 660 Climbing Chicago Center
10:22PM 42.4539 -86.1850 266° West 412 474 36,000 360 Climbing Chicago Center
10:23PM 42.4347 -86.3372 260° West 409 471 36,000  Level Chicago Center
10:24PM 42.4161 -86.4911 261° West 414 476 36,000  Level Chicago Center
10:25PM 42.3961 -86.6436 260° West 410 472 36,000  Level Chicago Center
10:26PM 42.3797 -86.7969 262° West 409 471 36,000  Level Chicago Center
10:27PM 42.3597 -86.9472 260° West 409 471 36,000  Level Chicago Center
10:28PM 42.3378 -87.0958 259° West 407 468 36,000  Level Chicago Center
10:29PM 42.3172 -87.2444 259° West 406 467 36,000  Level Chicago Center
10:30PM 42.2939 -87.4244 260° West 405 466 36,000  Level Chicago Center
10:31PM 42.2756 -87.5789 261° West 414 476 36,000  Level Chicago Center
10:32PM 42.2536 -87.7272 259° West 411 473 36,000  Level Chicago Center
10:33PM 42.2311 -87.8731 258° West 403 464 36,000  Level Chicago Center
10:34PM 42.2097 -88.0233 259° West 411 473 36,000  Level Chicago Center
10:35PM 42.1833 -88.1697 256° West 408 470 36,000  Level Chicago Center
10:36PM 42.1511 -88.3483 256° West 411 473 36,000  Level Chicago Center
10:37PM 42.1247 -88.4958 256° West 410 472 36,000  Level Chicago Center
10:38PM 42.0986 -88.6439 257° West 410 472 36,000  Level Chicago Center
10:39PM 42.0717 -88.7919 256° West 412 474 36,000  Level Chicago Center
10:40PM 42.0442 -88.9403 256° West 412 474 36,000  Level Chicago Center
10:41PM 42.0175 -89.0881 256° West 411 473 36,000  Level Chicago Center
10:42PM 41.9894 -89.2356 256° West 411 473 36,000  Level Chicago Center
10:43PM 41.9558 -89.4092 255° West 407 468 36,000  Level Chicago Center
10:44PM 41.9297 -89.5531 256° West 404 465 36,000  Level Chicago Center
10:45PM 41.9017 -89.6978 255° West 403 464 36,000  Level Chicago Center
10:46PM 41.8739 -89.8431 256° West 405 466 36,000  Level Chicago Center
10:47PM 41.8483 -89.9875 257° West 409 471 36,000  Level Chicago Center
10:48PM 41.8203 -90.1333 256° West 408 470 36,000  Level Chicago Center
10:49PM 41.7894 -90.2875 255° West 414 476 36,000  Level Chicago Center
10:50PM 41.7594 -90.4378 255° West 418 481 36,000  Level Chicago Center
10:51PM 41.7300 -90.5850 255° West 414 476 36,000  Level Chicago Center
10:52PM 41.6953 -90.7539 255° West 409 471 36,000  Level Chicago Center
10:53PM 41.6661 -90.9033 255° West 415 478 36,000  Level Chicago Center
10:54PM 41.6356 -91.0511 255° West 416 479 36,000  Level Chicago Center
10:55PM 41.6056 -91.1978 255° West 413 475 36,000  Level Chicago Center
10:56PM 41.5750 -91.3439 254° West 412 474 36,000  Level Chicago Center
10:57PM 41.5450 -91.4917 255° West 414 476 36,000  Level Chicago Center
10:58PM 41.5153 -91.6369 255° West 411 473 36,000  Level Chicago Center
10:59PM 41.5022 -91.7867 263° West 412 474 36,000  Level Chicago Center
11:00PM 41.4881 -91.9381 263° West 412 474 36,000  Level Chicago Center
11:01PM 41.4711 -92.1156 263° West 405 466 36,000  Level Chicago Center
11:02PM 41.4572 -92.2633 263° West 404 465 36,000  Level Chicago Center
11:03PM 41.4414 -92.4153 262° West 402 463 36,000  Level Chicago Center
11:04PM 41.4269 -92.5608 263° West 401 461 36,000  Level Chicago Center
11:06PM 41.4125 -92.7061 262° West 398 458 36,000  Level Minneapolis Center
11:07PM 41.3975 -92.8503 262° West 397 457 36,000  Level Minneapolis Center
11:08PM 41.3786 -93.0258 262° West 402 463 36,000  Level Minneapolis Center
11:09PM 41.3639 -93.1722 262° West 402 463 36,000  Level Minneapolis Center
11:10PM 41.3475 -93.3194 262° West 404 465 36,000  Level Minneapolis Center
11:11PM 41.3339 -93.4678 263° West 408 470 36,000  Level Minneapolis Center
11:12PM 41.3439 -93.6111 275° West 398 458 36,000  Level Minneapolis Center
11:13PM 41.3517 -93.7622 274° West 409 471 36,000  Level Minneapolis Center
11:14PM 41.3497 -93.9103 269° West 405 466 36,000  Level Minneapolis Center
11:15PM 41.3311 -94.0556 260° West 402 463 36,000  Level Minneapolis Center
11:16PM 41.3092 -94.2317 261° West 407 468 36,000  Level Minneapolis Center
11:17PM 41.2919 -94.3772 261° West 402 463 36,000  Level Minneapolis Center
11:18PM 41.2778 -94.5275 263° West 407 468 36,000  Level Minneapolis Center
11:19PM 41.2594 -94.6758 261° West 407 468 36,000  Level Minneapolis Center
11:20PM 41.2408 -94.8253 261° West 409 471 36,000  Level Minneapolis Center
11:21PM 41.2239 -94.9736 261° West 409 471 36,000  Level Minneapolis Center
11:22PM 41.2050 -95.1225 260° West 409 471 36,000  Level Minneapolis Center
11:23PM 41.1858 -95.2706 260° West 408 470 36,000  Level Minneapolis Center
11:24PM 41.1664 -95.4169 260° West 403 464 36,000  Level Minneapolis Center
11:25PM 41.1475 -95.5658 260° West 407 468 36,000  Level Minneapolis Center
11:26PM 41.1278 -95.7297 261° West 407 468 36,000  Level Minneapolis Center
11:27PM 41.1081 -95.8650 259° West 409 471 36,000  Level Minneapolis Center
11:28PM 41.0889 -96.0167 261° West 411 473 36,000  Level Minneapolis Center
11:29PM 41.0703 -96.1664 261° West 409 471 36,000  Level Minneapolis Center
11:30PM 41.0508 -96.3142 260° West 406 467 36,000  Level Minneapolis Center
11:31PM 41.0317 -96.4608 260° West 404 465 36,000  Level Minneapolis Center
11:32PM 41.0114 -96.6067 260° West 402 463 36,000  Level Minneapolis Center
11:33PM 40.9875 -96.7781 260° West 397 457 36,000  Level Minneapolis Center
11:34PM 40.9669 -96.9228 259° West 399 459 36,000  Level Minneapolis Center
11:35PM 40.9467 -97.0683 260° West 400 460 36,000  Level Minneapolis Center
11:36PM 40.9272 -97.2111 260° West 397 457 36,000  Level Minneapolis Center
11:37PM 40.9067 -97.3539 259° West 395 455 36,000  Level Minneapolis Center
11:38PM 40.8844 -97.5061 259° West 397 457 36,000  Level Minneapolis Center
11:39PM 40.8639 -97.6514 259° West 400 460 36,000  Level Minneapolis Center
11:40PM 40.8428 -97.7972 259° West 402 463 36,000  Level Minneapolis Center
11:41PM 40.8208 -97.9439 259° West 405 466 36,000  Level Minneapolis Center
11:42PM 40.7989 -98.0925 259° West 409 471 36,000  Level Minneapolis Center
11:43PM 40.7764 -98.2419 259° West 412 474 36,000  Level Minneapolis Center
11:44PM 40.7544 -98.3903 259° West 411 473 36,000  Level Minneapolis Center
11:45PM 40.7306 -98.5392 258° West 412 474 36,000  Level Minneapolis Center
11:46PM 40.7075 -98.6886 259° West 412 474 36,000  Level Minneapolis Center
11:47PM 40.6847 -98.8367 259° West 410 472 36,000  Level Minneapolis Center
11:48PM 40.6625 -98.9844 259° West 409 471 36,000  Level Minneapolis Center
11:49PM 40.6392 -99.1314 258° West 408 470 36,000  Level Minneapolis Center
11:50PM 40.6175 -99.2750 259° West 403 464 36,000  Level Minneapolis Center
11:51PM 40.5947 -99.4128 258° West 391 450 36,000  Level Minneapolis Center
11:52PM 40.5714 -99.5511 258° West 387 445 36,000  Level Minneapolis Center
11:53PM 40.5494 -99.6894 258° West 386 444 36,000  Level Minneapolis Center
11:54PM 40.5264 -99.8286 258° West 388 447 36,000  Level Minneapolis Center
11:55PM 40.5031 -99.9653 257° West 386 444 36,000  Level Minneapolis Center
11:56PM 40.4808 -100.1042 258° West 386 444 36,000  Level Minneapolis Center
11:57PM 40.4581 -100.2422 258° West 387 445 36,000  Level Minneapolis Center
11:58PM 40.4344 -100.3789 257° West 386 444 36,000  Level Minneapolis Center
11:59PM 40.4069 -100.5447 258° West 386 444 36,000  Level Minneapolis Center
12:00AM 40.3822 -100.6678 255° West 386 444 36,000 120 Level Denver Center
12:01AM 40.3553 -100.8225 257° West 388 447 36,300 540 Climbing Denver Center
12:03AM 40.3319 -100.9542 257° West 387 445 37,200 780 Climbing Denver Center
12:04AM 40.3097 -101.0839 257° West 382 440 38,000 360 Climbing Denver Center
12:05AM 40.2833 -101.2314 257° West 374 430 38,000  Level Denver Center
12:06AM 40.2603 -101.3583 257° West 373 429 38,000  Level Denver Center
12:07AM 40.2367 -101.4847 256° West 373 429 38,000  Level Denver Center
12:08AM 40.2106 -101.6311 257° West 371 427 38,000  Level Denver Center
12:09AM 40.1856 -101.7603 256° West 379 436 38,000  Level Denver Center
12:10AM 40.1617 -101.8922 257° West 387 445 38,000  Level Denver Center
12:11AM 40.1317 -102.0467 256° West 391 450 38,000  Level Denver Center
12:12AM 40.1075 -102.1811 257° West 396 456 38,000  Level Denver Center
12:13AM 40.0778 -102.3381 256° West 398 458 38,000  Level Denver Center
12:14AM 40.0533 -102.4675 256° West 387 445 38,000  Level Denver Center
12:15AM 40.0278 -102.5969 256° West 384 442 38,000  Level Denver Center
12:16AM 40.0028 -102.7239 256° West 382 440 38,000  Level Denver Center
12:17AM 39.9775 -102.8589 256° West 384 442 38,000  Level Denver Center
12:18AM 39.9447 -103.0217 255° West 388 447 38,000  Level Denver Center
12:19AM 39.9189 -103.1592 256° West 392 451 38,000  Level Denver Center
12:20AM 39.8908 -103.2972 255° West 394 453 38,000  Level Denver Center
12:21AM 39.8639 -103.4350 256° West 396 456 38,000  Level Denver Center
12:22AM 39.8356 -103.5733 255° West 396 456 38,000  Level Denver Center
12:23AM 39.8064 -103.7119 255° West 399 459 38,000  Level Denver Center
12:24AM 39.7717 -103.8489 252° West 400 460 38,000  Level Denver Center
12:25AM 39.7367 -103.9847 252° West 397 457 38,000  Level Denver Center
12:26AM 39.7022 -104.1192 252° West 392 451 38,000  Level Denver Center
12:27AM 39.6661 -104.2564 251° West 401 461 38,000  Level Denver Center
12:28AM 39.6308 -104.3933 252° West 399 459 38,000  Level Denver Center
12:29AM 39.5911 -104.5433 251° West 408 470 38,000  Level Denver Center
12:30AM 39.5544 -104.6817 251° West 405 466 38,000  Level Denver Center
12:31AM 39.5178 -104.8197 251° West 406 467 38,000  Level Denver Center
12:32AM 39.4814 -104.9567 251° West 402 463 38,000  Level Denver Center
12:33AM 39.4422 -105.1044 251° West 403 464 38,000  Level Denver Center
12:34AM 39.4083 -105.2272 250° West 395 455 38,000  Level Denver Center
12:35AM 39.3711 -105.3622 250° West 396 456 38,000  Level Denver Center
12:36AM 39.3347 -105.4967 251° West 397 457 38,000  Level Denver Center
12:37AM 39.2989 -105.6314 251° West 396 456 38,000  Level Denver Center
12:38AM 39.2608 -105.7658 250° West 399 459 38,000  Level Denver Center
12:39AM 39.2239 -105.9017 251° West 401 461 38,000  Level Denver Center
12:40AM 39.1858 -106.0389 250° West 407 468 38,000  Level Denver Center
12:41AM 39.1411 -106.1947 250° West 407 468 38,000  Level Denver Center
12:42AM 39.1061 -106.3264 251° West 406 467 38,000  Level Denver Center
12:43AM 39.0617 -106.4792 250° West 406 467 38,000  Level Denver Center
12:44AM 39.0236 -106.6103 250° West 408 470 38,000  Level Denver Center
12:45AM 38.9861 -106.7411 250° West 408 470 38,000  Level Denver Center
12:46AM 38.9475 -106.8725 249° West 409 471 38,000  Level Denver Center
12:47AM 38.9031 -107.0256 250° West 408 470 38,000  Level Denver Center
12:48AM 38.8642 -107.1603 250° West 411 473 38,000  Level Denver Center
12:49AM 38.8269 -107.2897 250° West 413 475 38,000  Level Denver Center
12:50AM 38.7811 -107.4444 249° West 417 480 38,000  Level Denver Center
12:51AM 38.7406 -107.5775 249° West 418 481 38,000  Level Denver Center
12:52AM 38.7014 -107.7119 250° West 420 483 38,000  Level Denver Center
12:53AM 38.6553 -107.8672 249° West 418 481 38,000  Level Denver Center
12:54AM 38.6150 -108.0025 249° West 423 487 38,000  Level Denver Center
12:55AM 38.5756 -108.1347 249° West 417 480 38,000  Level Denver Center
12:56AM 38.5283 -108.2906 249° West 419 482 38,000  Level Denver Center
12:57AM 38.4878 -108.4250 249° West 421 484 38,000  Level Denver Center
12:58AM 38.4458 -108.5586 248° West 423 487 38,000  Level Denver Center
12:59AM 38.4056 -108.6917 249° West 421 484 38,000  Level Denver Center
01:00AM 38.3572 -108.8494 249° West 427 491 38,000  Level Denver Center
01:01AM 38.3153 -108.9858 249° West 431 496 38,000  Level Denver Center
01:02AM 38.2719 -109.1225 248° West 433 498 38,000  Level Denver Center
01:03AM 38.2233 -109.2769 248° West 423 487 38,000  Level Denver Center
01:04AM 38.1819 -109.4078 248° West 420 483 38,000  Level Denver Center
01:05AM 38.1386 -109.5411 248° West 426 490 38,000  Level Denver Center
01:06AM 38.0889 -109.6967 248° West 426 490 38,000  Level Denver Center
01:07AM 38.0442 -109.8311 247° West 429 494 38,000  Level Denver Center
01:08AM 38.0028 -109.9661 249° West 430 495 38,000  Level Denver Center
01:09AM 37.9603 -110.0978 248° West 425 489 38,000  Level Denver Center
01:10AM 37.9097 -110.2517 247° West 424 488 38,000  Level Denver Center
01:11AM 37.8675 -110.3825 248° West 422 486 38,000  Level Denver Center
01:12AM 37.8264 -110.5100 248° West 415 478 38,000  Level Denver Center
01:13AM 37.7775 -110.6558 247° West 417 480 38,000  Level Denver Center
01:14AM 37.7319 -110.7906 247° West 418 481 38,000  Level Denver Center
01:15AM 37.6867 -110.9253 247° West 417 480 38,000  Level Denver Center
01:16AM 37.6419 -111.0608 247° West 419 482 38,000  Level Denver Center
01:17AM 37.5964 -111.1967 247° West 422 486 38,000  Level Denver Center
01:18AM 37.5508 -111.3322 247° West 421 484 38,000  Level Denver Center
01:19AM 37.5047 -111.4664 247° West 419 482 38,000  Level Denver Center
01:20AM 37.4592 -111.6028 247° West 422 486 38,000  Level Denver Center
01:21AM 37.4125 -111.7381 247° West 421 484 38,000  Level Denver Center
01:22AM 37.3664 -111.8714 247° West 416 479 38,000  Level Denver Center
01:23AM 37.3211 -112.0033 247° West 412 474 38,000 -420 Level Denver Center
01:24AM 37.2744 -112.1378 246° West 416 479 37,200 -900 Descending Denver Center
01:25AM 37.2267 -112.2725 246° West 420 483 36,300 -960 Descending Denver Center
01:26AM 37.1811 -112.4036 246° West 414 476 35,300 -1,020 Descending Denver Center
01:28AM 37.1061 -112.6158 246° West 421 484 33,800 -1,080 Descending Los Angeles Center
01:29AM 37.0572 -112.7531 246° West 430 495 32,600 -2,460 Descending Los Angeles Center
01:30AM 37.0072 -112.8950 246° West 439 505 28,900 -3,540 Descending Los Angeles Center
01:31AM 36.9556 -113.0403 246° West 450 518 25,500 -2,220 Descending Los Angeles Center
01:32AM 36.9031 -113.1861 246° West 456 525 24,500 -1,020 Descending Los Angeles Center
01:33AM 36.8514 -113.3286 246° West 454 522 23,500 -1,020 Descending Los Angeles Center
01:34AM 36.8000 -113.4692 245° Southwest 447 514 22,500 -1,020 Descending Los Angeles Center
01:35AM 36.7503 -113.6072 246° West 441 507 21,500 -1,020 Descending Los Angeles Center
01:36AM 36.7014 -113.7439 246° West 435 501 20,500 -1,020 Descending Los Angeles Center
01:37AM 36.6519 -113.8778 245° Southwest 429 494 19,500 -1,020 Descending Los Angeles Center
01:38AM 36.6028 -114.0100 245° Southwest 424 488 18,500 -1,380 Descending Los Angeles Center
01:39AM 36.5528 -114.1378 244° Southwest 416 479 16,700 -2,160 Descending Los Angeles Center
01:40AM 36.4958 -114.2558 239° Southwest 404 465 14,200 -2,760 Descending Los Angeles Center
01:40AM 36.4769 -114.2992 242° Southwest 402 463 13,500 -2,280 Descending Los Angeles Center
01:41AM 36.4522 -114.3531 240° Southwest 386 444 12,700 -1,200 Descending Los Angeles Center
01:41AM 36.4347 -114.3939 242° Southwest 386 444 12,500 -660 Descending Los Angeles Center
01:42AM 36.4069 -114.4514 239° Southwest 350 403 12,100 -540 Descending Los Angeles Center
01:42AM 36.3872 -114.4942 240° Southwest 350 403 12,000 -660 Descending Los Angeles Center
01:43AM 36.3581 -114.5619 242° Southwest 325 374 11,400 -900 Descending Los Angeles Center
01:43AM 36.3428 -114.5914 237° Southwest 328 377 11,100 -1,020 Descending Los Angeles Center
01:44AM 36.3128 -114.6600 242° Southwest 317 365 10,400 -1,200 Descending Los Angeles Center
01:44AM 36.2986 -114.6864 236° Southwest 319 367 9,900 -1,680 Descending Los Angeles Center
01:45AM 36.2725 -114.7431 240° Southwest 319 367 8,900 -1,320 Descending Los Angeles Center
01:45AM 36.2542 -114.7817 240° Southwest 319 367 8,600 -840 Descending Los Angeles Center
01:46AM 36.2256 -114.8442 240° Southwest 300 345 8,000 -600 Descending Los Angeles Center
01:46AM 36.2131 -114.8686 238° Southwest 298 343 8,000  Level Los Angeles Center
01:47AM 36.1906 -114.9200 242° Southwest 243 280 8,000  Level Los Angeles Center
01:47AM 36.1806 -114.9389 237° Southwest 242 278 8,000  Level Los Angeles Center
01:48AM 36.1600 -114.9886 243° Southwest 216 249 8,000  Level Los Angeles Center
01:48AM 36.1508 -115.0039 233° Southwest 220 253 8,000  Level Los Angeles Center
01:49AM 36.1336 -115.0453 243° Southwest 212 244 8,000  Level Los Angeles Center
01:49AM 36.1133 -115.0578 206° Southwest 215 247 8,000  Level Los Angeles Center
01:50AM 36.0778 -115.0772 204° Southwest 220 253 8,000  Level Los Angeles Center
01:50AM 36.0558 -115.0861 198° South 221 254 8,000  Level Los Angeles Center
01:51AM 36.0211 -115.1039 202° Southwest 221 254 8,000  Level Los Angeles Center
01:51AM 35.9981 -115.1144 200° South 221 254 8,000  Level Los Angeles Center
01:52AM 35.9486 -115.1383 201° Southwest 224 258 8,000  Level Los Angeles Center
01:52AM 35.9397 -115.1419 198° South 223 257 8,000  Level Los Angeles Center
01:53AM 35.9000 -115.1625 203° Southwest 224 258 8,000  Level Los Angeles Center
01:53AM 35.8817 -115.1708 200° South 224 258 8,000  Level Los Angeles Center
01:54AM 35.8417 -115.1922 203° Southwest 226 260 8,000 -120 Level Los Angeles Center
01:54AM 35.8228 -115.1994 197° South 224 258 7,900 -480 Descending Los Angeles Center
01:55AM 35.7922 -115.2428 229° Southwest 215 247 7,500 -540 Descending Los Angeles Center
01:55AM 35.7853 -115.2583 241° Southwest 224 258 7,400 -480 Descending Los Angeles Center
01:56AM 35.7958 -115.3000 287° West 181 208 7,100 -540 Descending Los Angeles Center
01:56AM 35.8069 -115.3125 318° Northwest 196 226 6,900 -720 Descending Los Angeles Center
01:57AM 35.8414 -115.3011 15° North 161 185 6,300 -600 Descending Los Angeles Center
01:57AM 35.8475 -115.2958 35° Northeast 170 196 6,300  Level Los Angeles Center
01:58AM 35.8803 -115.2803 21° North 155 178 6,300 -240 Level Los Angeles Center
01:58AM 35.8944 -115.2692 32° Northeast 159 183 6,100 -780 Descending Los Angeles Center
01:59AM 35.9203 -115.2567 21° North 156 180 5,500 -900 Descending Los Angeles Center
01:59AM 35.9339 -115.2469 30° Northeast 156 180 5,200 -840 Descending Los Angeles Center
02:00AM 35.9586 -115.2333 24° Northeast 156 180 4,700 -540 Descending Los Angeles Center
02:00AM 35.9683 -115.2286 21° North 157 181 4,700 -840 Level Los Angeles Center
02:01AM 35.9933 -115.2142 25° Northeast 135 155 3,900 -540 Descending Los Angeles Center
02:01AM 36.0078 -115.2075 20° North 155 178 4,200 -720 Climbing Los Angeles Center
02:02AM 36.0319 -115.1933 25° Northeast 133 153 3,100 -1,080 Descending Los Angeles Center
02:03AM 36.0681 -115.1708 27° Northeast 137 158 2,400 -720 Descending Los Angeles Center